createdAt,value
2022-10-09T00:01:31.325Z,90.83
2022-10-09T00:03:59.268Z,91.15
2022-10-09T00:06:29.518Z,91.65
2022-10-09T00:08:56.639Z,91.89
2022-10-09T00:11:26.190Z,92.03
2022-10-09T00:13:53.746Z,91.88
2022-10-09T00:16:21.638Z,92.17
2022-10-09T00:18:48.894Z,92.01
2022-10-09T00:21:27.158Z,91.91
2022-10-09T00:23:55.646Z,92.02
2022-10-09T00:26:22.495Z,92.02
2022-10-09T00:28:49.695Z,92.04
2022-10-09T00:31:16.722Z,92.06
2022-10-09T00:33:43.324Z,91.60
2022-10-09T00:36:12.985Z,91.60
2022-10-09T00:38:39.517Z,91.63
2022-10-09T00:41:06.638Z,91.81
2022-10-09T00:43:49.811Z,91.89
2022-10-09T00:46:33.692Z,91.77
2022-10-09T00:49:05.529Z,91.70
2022-10-09T00:51:33.952Z,91.83
2022-10-09T00:54:02.961Z,92.15
2022-10-09T00:56:29.485Z,92.02
2022-10-09T00:58:58.004Z,92.06
2022-10-09T01:01:24.545Z,92.35
2022-10-09T01:03:51.771Z,91.88
2022-10-09T01:06:48.135Z,91.86
2022-10-09T01:09:22.745Z,91.83
2022-10-09T01:12:00.533Z,91.97
2022-10-09T01:14:38.908Z,92.13
2022-10-09T01:17:17.944Z,92.23
2022-10-09T01:20:02.391Z,92.13
2022-10-09T01:22:47.918Z,92.04
2022-10-09T01:25:50.116Z,91.96
2022-10-09T01:28:20.906Z,91.67
2022-10-09T01:30:48.518Z,92.13
2022-10-09T01:33:16.441Z,91.87
2022-10-09T01:35:45.394Z,92.01
2022-10-09T01:38:11.995Z,92.25
2022-10-09T01:40:39.221Z,92.07
2022-10-09T01:43:05.828Z,92.24
2022-10-09T01:45:44.953Z,92.11
2022-10-09T01:48:17.715Z,92.41
2022-10-09T01:50:48.040Z,92.58
2022-10-09T01:53:19.680Z,92.60
2022-10-09T01:55:55.073Z,92.62
2022-10-09T01:58:21.440Z,92.77
2022-10-09T02:01:01.749Z,92.63
2022-10-09T02:03:30.359Z,92.69
2022-10-09T02:05:58.096Z,92.76
2022-10-09T02:08:25.736Z,92.79
2022-10-09T02:10:56.344Z,93.00
2022-10-09T02:13:23.523Z,92.56
2022-10-09T02:15:56.317Z,92.70
2022-10-09T02:18:38.542Z,92.36
2022-10-09T02:21:12.223Z,92.44
2022-10-09T02:23:41.405Z,92.61
2022-10-09T02:26:10.007Z,92.53
2022-10-09T02:28:37.466Z,92.75
2022-10-09T02:31:12.085Z,92.75
2022-10-09T02:33:38.675Z,92.81
2022-10-09T02:36:05.543Z,93.02
2022-10-09T02:38:31.956Z,93.06
2022-10-09T02:41:01.889Z,93.14
2022-10-09T02:43:28.628Z,92.62
2022-10-09T02:45:55.035Z,92.72
2022-10-09T02:48:21.471Z,92.82
2022-10-09T02:50:47.959Z,92.84
2022-10-09T02:53:14.366Z,93.06
2022-10-09T02:55:40.791Z,93.06
2022-10-09T02:58:07.174Z,93.21
2022-10-09T03:00:33.561Z,93.25
2022-10-09T03:02:59.991Z,93.09
2022-10-09T03:05:26.491Z,93.29
2022-10-09T03:07:53.589Z,93.47
2022-10-09T03:10:21.066Z,93.30
2022-10-09T03:12:48.380Z,93.36
2022-10-09T03:15:15.380Z,93.12
2022-10-09T03:17:41.755Z,93.20
2022-10-09T03:20:08.663Z,93.13
2022-10-09T03:22:35.046Z,93.14
2022-10-09T03:25:01.437Z,93.16
2022-10-09T03:27:27.838Z,93.33
2022-10-09T03:29:54.239Z,92.97
2022-10-09T03:32:20.671Z,93.18
2022-10-09T03:34:47.092Z,93.15
2022-10-09T03:37:13.474Z,93.01
2022-10-09T03:39:39.906Z,92.98
2022-10-09T03:42:06.364Z,92.91
2022-10-09T03:44:32.750Z,92.84
2022-10-09T03:46:59.225Z,92.75
2022-10-09T03:49:25.842Z,92.36
2022-10-09T03:51:52.244Z,92.86
2022-10-09T03:54:18.623Z,92.83
2022-10-09T03:56:44.999Z,92.91
2022-10-09T03:59:11.409Z,93.01
2022-10-09T04:01:37.831Z,93.08
2022-10-09T04:04:04.264Z,93.19
2022-10-09T04:06:30.727Z,93.00
2022-10-09T04:08:57.139Z,93.12
2022-10-09T04:11:23.553Z,93.30
2022-10-09T04:13:49.951Z,93.47
2022-10-09T04:16:16.730Z,93.35
2022-10-09T04:18:44.247Z,93.11
2022-10-09T04:21:12.951Z,93.06
2022-10-09T04:23:39.661Z,92.99
2022-10-09T04:26:06.630Z,93.04
2022-10-09T04:28:33.119Z,93.12
2022-10-09T04:30:59.604Z,93.08
2022-10-09T04:33:26.963Z,92.97
2022-10-09T04:35:54.968Z,92.89
2022-10-09T04:38:21.812Z,93.14
2022-10-09T04:41:02.908Z,93.04
2022-10-09T04:43:29.684Z,93.03
2022-10-09T04:45:56.284Z,93.08
2022-10-09T04:48:22.810Z,93.60
2022-10-09T04:50:49.256Z,93.19
2022-10-09T04:53:15.729Z,93.21
2022-10-09T04:55:43.592Z,93.42
2022-10-09T04:58:11.820Z,93.06
2022-10-09T05:00:42.845Z,93.20
2022-10-09T05:03:10.165Z,93.43
2022-10-09T05:05:37.047Z,93.22
2022-10-09T05:08:04.033Z,93.23
2022-10-09T05:10:32.235Z,93.49
2022-10-09T05:12:59.485Z,93.40
2022-10-09T05:15:25.965Z,93.65
2022-10-09T05:17:52.348Z,93.69
2022-10-09T05:20:18.736Z,93.68
2022-10-09T05:22:45.983Z,93.66
2022-10-09T05:25:12.722Z,93.68
2022-10-09T05:27:39.206Z,93.48
2022-10-09T05:30:06.872Z,93.45
2022-10-09T05:32:33.261Z,93.93
2022-10-09T05:34:59.643Z,93.75
2022-10-09T05:37:26.001Z,93.08
2022-10-09T05:39:52.386Z,94.04
2022-10-09T05:42:18.757Z,93.98
2022-10-09T05:44:45.168Z,94.04
2022-10-09T05:47:13.517Z,93.86
2022-10-09T05:49:39.909Z,93.93
2022-10-09T05:52:06.285Z,94.01
2022-10-09T05:54:32.671Z,93.76
2022-10-09T05:56:59.107Z,93.88
2022-10-09T05:59:25.644Z,93.89
2022-10-09T06:01:53.398Z,93.76
2022-10-09T06:04:24.507Z,93.77
2022-10-09T06:06:51.370Z,93.57
2022-10-09T06:09:22.773Z,93.66
2022-10-09T06:11:50.841Z,94.03
2022-10-09T06:14:17.412Z,94.06
2022-10-09T06:16:45.447Z,93.99
2022-10-09T06:19:13.804Z,93.88
2022-10-09T06:21:40.676Z,93.98
2022-10-09T06:24:07.516Z,94.15
2022-10-09T06:26:34.464Z,94.08
2022-10-09T06:29:02.464Z,94.22
2022-10-09T06:31:31.652Z,94.27
2022-10-09T06:34:02.507Z,94.11
2022-10-09T06:36:32.212Z,94.23
2022-10-09T06:38:59.947Z,94.08
2022-10-09T06:41:28.164Z,94.15
2022-10-09T06:43:56.905Z,94.29
2022-10-09T06:46:26.172Z,94.61
2022-10-09T06:48:52.792Z,94.56
2022-10-09T06:51:21.660Z,94.47
2022-10-09T06:53:50.662Z,94.79
2022-10-09T06:56:19.055Z,95.20
2022-10-09T06:58:46.085Z,95.48
2022-10-09T07:01:15.226Z,96.26
2022-10-09T07:03:43.642Z,96.10
2022-10-09T07:06:18.929Z,96.18
2022-10-09T07:08:47.789Z,96.20
2022-10-09T07:11:21.288Z,96.48
2022-10-09T07:13:50.084Z,96.75
2022-10-09T07:16:21.805Z,97.27
2022-10-09T07:18:48.999Z,97.76
2022-10-09T07:21:16.111Z,97.79
2022-10-09T07:23:43.067Z,98.27
2022-10-09T07:26:15.943Z,98.54
2022-10-09T07:28:43.684Z,98.73
2022-10-09T07:31:11.135Z,99.07
2022-10-09T07:33:37.849Z,98.98
2022-10-09T07:36:05.600Z,99.01
2022-10-09T07:38:32.170Z,98.57
2022-10-09T07:41:06.069Z,98.66
2022-10-09T07:43:35.141Z,98.61
2022-10-09T07:46:02.514Z,98.42
2022-10-09T07:48:29.306Z,98.37
2022-10-09T07:50:55.971Z,98.01
2022-10-09T07:53:23.322Z,97.90
2022-10-09T07:55:50.061Z,97.68
2022-10-09T07:58:17.236Z,97.67
2022-10-09T08:00:44.314Z,97.52
2022-10-09T08:03:10.956Z,96.43
2022-10-09T08:05:37.445Z,96.41
2022-10-09T08:08:04.167Z,95.94
2022-10-09T08:10:31.464Z,95.90
2022-10-09T08:12:57.887Z,95.58
2022-10-09T08:15:24.428Z,95.06
2022-10-09T08:17:54.822Z,94.51
2022-10-09T08:20:21.254Z,93.72
2022-10-09T08:22:47.937Z,93.74
2022-10-09T08:25:14.811Z,93.31
2022-10-09T08:27:41.223Z,93.10
2022-10-09T08:30:08.366Z,92.05
2022-10-09T08:32:34.752Z,91.77
2022-10-09T08:35:01.155Z,91.21
2022-10-09T08:37:27.532Z,90.86
2022-10-09T08:39:53.971Z,90.28
2022-10-09T08:42:35.643Z,89.55
2022-10-09T08:45:02.739Z,89.14
2022-10-09T08:47:40.878Z,88.93
2022-10-09T08:50:18.801Z,87.79
2022-10-09T08:53:13.398Z,87.26
2022-10-09T08:55:53.651Z,87.76
2022-10-09T08:58:21.283Z,86.83
2022-10-09T09:01:07.658Z,86.42
2022-10-09T09:04:03.512Z,84.80
2022-10-09T09:07:13.052Z,85.32
2022-10-09T09:09:45.254Z,84.55
2022-10-09T09:12:41.277Z,84.74
2022-10-09T09:15:25.346Z,83.65
2022-10-09T09:18:04.599Z,83.04
2022-10-09T09:20:52.230Z,82.59
2022-10-09T09:23:27.528Z,81.90
2022-10-09T09:25:54.156Z,81.54
2022-10-09T09:28:26.367Z,80.83
2022-10-09T09:31:13.068Z,80.62
2022-10-09T09:33:46.787Z,80.02
2022-10-09T09:36:29.284Z,79.09
2022-10-09T09:39:45.569Z,77.41
2022-10-09T09:41:43.443Z,77.40
2022-10-09T09:44:12.956Z,76.41
2022-10-09T09:46:40.507Z,76.52
2022-10-09T09:49:27.124Z,75.86
2022-10-09T09:51:56.096Z,74.74
2022-10-09T09:54:25.931Z,73.35
2022-10-09T09:57:14.924Z,74.16
2022-10-09T09:59:43.893Z,72.38
2022-10-09T10:02:23.835Z,72.27
2022-10-09T10:04:57.820Z,71.07
2022-10-09T10:07:32.473Z,70.82
2022-10-09T10:10:25.752Z,71.33
2022-10-09T10:12:52.664Z,70.38
2022-10-09T10:15:23.863Z,70.17
2022-10-09T10:17:58.430Z,70.00
2022-10-09T10:20:25.472Z,68.97
2022-10-09T10:22:57.331Z,69.69
2022-10-09T10:25:29.631Z,69.82
2022-10-09T10:28:20.492Z,69.48
2022-10-09T10:30:49.641Z,68.93
2022-10-09T10:33:22.349Z,68.85
2022-10-09T10:35:52.805Z,67.79
2022-10-09T10:38:31.267Z,67.23
2022-10-09T10:41:19.167Z,68.41
2022-10-09T10:43:51.281Z,67.36
2022-10-09T10:46:28.224Z,66.54
2022-10-09T10:48:54.645Z,66.04
2022-10-09T10:51:39.798Z,65.58
2022-10-09T10:54:39.192Z,65.70
2022-10-09T10:57:29.967Z,64.89
2022-10-09T11:00:06.810Z,65.52
2022-10-09T11:03:06.281Z,65.56
2022-10-09T11:06:00.730Z,63.51
2022-10-09T11:08:45.919Z,62.63
2022-10-09T11:11:22.212Z,62.15
2022-10-09T11:14:25.953Z,62.64
2022-10-09T11:17:16.656Z,61.40
2022-10-09T11:19:48.308Z,62.27
2022-10-09T11:22:29.552Z,62.06
2022-10-09T11:25:12.136Z,62.55
2022-10-09T11:27:59.076Z,61.78
2022-10-09T11:30:28.522Z,60.28
2022-10-09T11:33:24.310Z,61.74
2022-10-09T11:36:00.384Z,60.94
2022-10-09T11:38:31.705Z,59.95
2022-10-09T11:41:00.731Z,58.83
2022-10-09T11:44:18.343Z,61.08
2022-10-09T11:47:14.890Z,59.63
2022-10-09T11:50:06.182Z,59.79
2022-10-09T11:52:45.199Z,59.27
2022-10-09T11:55:20.367Z,58.53
2022-10-09T11:57:47.654Z,58.67
2022-10-09T12:00:15.767Z,57.82
2022-10-09T12:02:43.465Z,57.71
2022-10-09T12:05:33.251Z,59.21
2022-10-09T12:08:12.947Z,57.98
2022-10-09T12:10:51.124Z,57.98
2022-10-09T12:13:36.290Z,58.82
2022-10-09T12:16:03.641Z,56.35
2022-10-09T12:18:34.007Z,55.79
2022-10-09T12:21:05.055Z,55.14
2022-10-09T12:23:35.249Z,55.44
2022-10-09T12:26:03.576Z,56.87
2022-10-09T12:28:35.980Z,56.96
2022-10-09T12:31:05.458Z,55.29
2022-10-09T12:33:40.030Z,56.44
2022-10-09T12:36:14.564Z,55.91
2022-10-09T12:38:42.059Z,56.22
2022-10-09T12:41:23.032Z,57.40
2022-10-09T12:43:55.449Z,57.38
2022-10-09T12:46:31.771Z,57.58
2022-10-09T12:48:59.787Z,56.84
2022-10-09T12:51:28.495Z,57.48
2022-10-09T12:53:55.114Z,56.70
2022-10-09T12:56:26.839Z,57.38
2022-10-09T12:58:54.225Z,59.17
2022-10-09T13:01:21.735Z,58.53
2022-10-09T13:04:00.328Z,57.82
2022-10-09T13:06:47.927Z,58.00
2022-10-09T13:09:36.913Z,58.03
2022-10-09T13:12:17.729Z,57.63
2022-10-09T13:15:05.767Z,57.71
2022-10-09T13:17:33.849Z,57.53
2022-10-09T13:20:03.788Z,57.36
2022-10-09T13:22:35.206Z,57.91
2022-10-09T13:25:02.909Z,57.99
2022-10-09T13:27:32.562Z,58.01
2022-10-09T13:30:00.402Z,56.67
2022-10-09T13:32:27.176Z,57.08
2022-10-09T13:34:58.001Z,56.47
2022-10-09T13:37:26.507Z,57.33
2022-10-09T13:39:58.909Z,57.38
2022-10-09T13:42:28.088Z,58.00
2022-10-09T13:44:54.523Z,58.36
2022-10-09T13:47:24.430Z,57.90
2022-10-09T13:49:51.378Z,57.18
2022-10-09T13:52:17.876Z,57.38
2022-10-09T13:54:44.880Z,57.25
2022-10-09T13:57:11.388Z,58.25
2022-10-09T13:59:38.162Z,57.52
2022-10-09T14:02:04.845Z,58.31
2022-10-09T14:04:31.330Z,57.54
2022-10-09T14:06:57.731Z,57.86
2022-10-09T14:09:24.403Z,57.10
2022-10-09T14:11:50.812Z,57.23
2022-10-09T14:14:17.243Z,57.78
2022-10-09T14:16:43.945Z,57.94
2022-10-09T14:19:11.636Z,58.63
2022-10-09T14:21:38.266Z,57.71
2022-10-09T14:24:05.445Z,57.97
2022-10-09T14:26:32.481Z,56.99
2022-10-09T14:29:01.124Z,57.39
2022-10-09T14:31:27.829Z,56.90
2022-10-09T14:33:59.439Z,57.90
2022-10-09T14:36:26.828Z,57.59
2022-10-09T14:38:53.253Z,57.82
2022-10-09T14:41:19.920Z,58.55
2022-10-09T14:43:47.470Z,57.29
2022-10-09T14:46:19.220Z,56.99
2022-10-09T14:48:46.222Z,58.40
2022-10-09T14:51:16.550Z,57.74
2022-10-09T14:53:43.461Z,58.19
2022-10-09T14:56:13.370Z,57.78
2022-10-09T14:58:40.455Z,57.44
2022-10-09T15:01:07.741Z,57.63
2022-10-09T15:03:35.262Z,58.17
2022-10-09T15:06:05.220Z,57.40
2022-10-09T15:08:36.462Z,57.85
2022-10-09T15:11:03.003Z,57.21
2022-10-09T15:13:30.073Z,57.28
2022-10-09T15:16:13.915Z,58.14
2022-10-09T15:18:40.650Z,57.48
2022-10-09T15:21:16.441Z,57.71
2022-10-09T15:23:43.208Z,57.72
2022-10-09T15:26:10.624Z,58.76
2022-10-09T15:28:39.036Z,58.22
2022-10-09T15:31:06.924Z,57.75
2022-10-09T15:33:33.636Z,57.62
2022-10-09T15:36:00.596Z,57.47
2022-10-09T15:38:27.020Z,57.23
2022-10-09T15:40:56.712Z,57.16
2022-10-09T15:43:26.129Z,57.51
2022-10-09T15:45:56.135Z,57.32
2022-10-09T15:48:24.378Z,56.83
2022-10-09T15:50:53.509Z,56.85
2022-10-09T15:53:22.240Z,57.40
2022-10-09T15:55:51.029Z,57.30
2022-10-09T15:58:18.531Z,57.44
2022-10-09T16:00:48.279Z,57.17
2022-10-09T16:03:16.515Z,57.30
2022-10-09T16:05:50.889Z,57.26
2022-10-09T16:08:18.826Z,57.10
2022-10-09T16:10:49.043Z,57.06
2022-10-09T16:13:16.198Z,57.60
2022-10-09T16:15:43.587Z,58.49
2022-10-09T16:18:11.236Z,58.84
2022-10-09T16:20:38.844Z,59.58
2022-10-09T16:23:05.409Z,59.93
2022-10-09T16:25:31.903Z,60.26
2022-10-09T16:27:58.453Z,59.81
2022-10-09T16:30:25.075Z,60.38
2022-10-09T16:32:52.108Z,60.30
2022-10-09T16:35:18.897Z,60.92
2022-10-09T16:37:45.437Z,61.48
2022-10-09T16:40:11.988Z,61.81
2022-10-09T16:42:38.386Z,62.03
2022-10-09T16:45:05.668Z,62.26
2022-10-09T16:47:33.869Z,62.73
2022-10-09T16:50:00.344Z,62.99
2022-10-09T16:52:26.735Z,63.53
2022-10-09T16:54:57.023Z,63.60
2022-10-09T16:57:26.062Z,64.41
2022-10-09T16:59:52.867Z,64.44
2022-10-09T17:02:19.308Z,65.21
2022-10-09T17:04:46.163Z,65.38
2022-10-09T17:07:12.601Z,66.16
2022-10-09T17:09:40.420Z,66.49
2022-10-09T17:12:12.939Z,66.92
2022-10-09T17:14:40.659Z,67.60
2022-10-09T17:17:08.996Z,67.67
2022-10-09T17:19:36.180Z,68.36
2022-10-09T17:22:03.200Z,68.61
2022-10-09T17:24:30.385Z,69.00
2022-10-09T17:26:57.037Z,69.39
2022-10-09T17:29:23.875Z,69.74
2022-10-09T17:31:50.639Z,70.33
2022-10-09T17:34:17.739Z,71.26
2022-10-09T17:36:45.191Z,71.72
2022-10-09T17:39:15.071Z,72.24
2022-10-09T17:41:43.285Z,72.81
2022-10-09T17:44:09.772Z,73.31
2022-10-09T17:46:37.192Z,74.14
2022-10-09T17:49:04.109Z,74.00
2022-10-09T17:51:34.774Z,74.93
2022-10-09T17:54:08.180Z,75.55
2022-10-09T17:56:37.495Z,75.41
2022-10-09T17:59:04.450Z,76.71
2022-10-09T18:01:31.693Z,76.45
2022-10-09T18:03:58.396Z,76.85
2022-10-09T18:06:24.997Z,77.52
2022-10-09T18:08:53.924Z,77.91
2022-10-09T18:11:22.078Z,78.07
2022-10-09T18:13:49.212Z,78.47
2022-10-09T18:16:23.976Z,78.39
2022-10-09T18:18:50.600Z,79.24
2022-10-09T18:21:17.726Z,79.58
2022-10-09T18:23:47.629Z,79.56
2022-10-09T18:26:16.912Z,80.05
2022-10-09T18:28:47.494Z,80.68
2022-10-09T18:31:20.273Z,80.05
2022-10-09T18:33:47.477Z,81.14
2022-10-09T18:36:30.627Z,80.58
2022-10-09T18:39:13.195Z,80.76
2022-10-09T18:41:39.810Z,81.01
2022-10-09T18:44:09.626Z,80.99
2022-10-09T18:46:39.200Z,81.33
2022-10-09T18:49:09.874Z,81.30
2022-10-09T18:51:37.749Z,81.49
2022-10-09T18:54:06.225Z,82.24
2022-10-09T18:56:34.160Z,82.78
2022-10-09T18:59:03.595Z,82.40
2022-10-09T19:01:30.019Z,82.40
2022-10-09T19:03:56.521Z,82.71
2022-10-09T19:06:23.198Z,83.39
2022-10-09T19:08:49.697Z,83.68
2022-10-09T19:11:16.187Z,83.57
2022-10-09T19:13:43.883Z,83.48
2022-10-09T19:16:10.455Z,83.75
2022-10-09T19:18:37.857Z,83.80
2022-10-09T19:21:04.567Z,83.61
2022-10-09T19:23:31.335Z,83.56
2022-10-09T19:25:58.881Z,84.26
2022-10-09T19:28:27.774Z,84.53
2022-10-09T19:30:54.479Z,84.55
2022-10-09T19:33:20.951Z,84.47
2022-10-09T19:35:53.389Z,84.36
2022-10-09T19:38:21.028Z,84.35
2022-10-09T19:40:48.005Z,84.70
2022-10-09T19:43:15.957Z,83.99
2022-10-09T19:45:43.007Z,84.68
2022-10-09T19:48:09.500Z,84.90
2022-10-09T19:50:43.624Z,84.79
2022-10-09T19:53:11.175Z,85.02
2022-10-09T19:55:38.042Z,85.03
2022-10-09T19:58:05.075Z,85.29
2022-10-09T20:00:31.527Z,85.66
2022-10-09T20:02:57.963Z,85.29
2022-10-09T20:05:24.483Z,84.76
2022-10-09T20:07:50.873Z,85.84
2022-10-09T20:10:17.820Z,85.96
2022-10-09T20:12:44.433Z,85.46
2022-10-09T20:15:10.934Z,85.36
2022-10-09T20:17:37.328Z,86.45
2022-10-09T20:20:05.039Z,86.22
2022-10-09T20:22:31.437Z,85.87
2022-10-09T20:24:57.824Z,86.16
2022-10-09T20:27:24.227Z,86.57
2022-10-09T20:29:52.649Z,86.50
2022-10-09T20:32:19.048Z,86.53
2022-10-09T20:34:45.761Z,86.92
2022-10-09T20:37:12.179Z,86.93
2022-10-09T20:39:38.570Z,86.29
2022-10-09T20:42:05.052Z,86.92
2022-10-09T20:44:31.619Z,86.67
2022-10-09T20:46:58.006Z,86.65
2022-10-09T20:49:24.617Z,87.07
2022-10-09T20:51:53.000Z,86.83
2022-10-09T20:54:21.200Z,86.87
2022-10-09T20:56:48.823Z,86.53
2022-10-09T20:59:16.019Z,87.04
2022-10-09T21:01:42.690Z,86.81
2022-10-09T21:04:11.026Z,87.21
2022-10-09T21:06:37.679Z,87.27
2022-10-09T21:09:04.503Z,87.20
2022-10-09T21:11:32.429Z,87.01
2022-10-09T21:13:58.800Z,86.95
2022-10-09T21:16:25.751Z,87.18
2022-10-09T21:19:00.597Z,86.75
2022-10-09T21:21:27.663Z,87.40
2022-10-09T21:23:56.532Z,87.23
2022-10-09T21:26:24.591Z,86.69
2022-10-09T21:28:56.759Z,87.63
2022-10-09T21:31:27.325Z,87.95
2022-10-09T21:33:54.327Z,87.79
2022-10-09T21:36:29.568Z,87.39
2022-10-09T21:38:56.115Z,87.81
2022-10-09T21:41:22.746Z,87.86
2022-10-09T21:43:49.104Z,88.11
2022-10-09T21:46:15.500Z,88.07
2022-10-09T21:48:41.877Z,88.25
2022-10-09T21:51:08.344Z,88.59
2022-10-09T21:53:34.944Z,88.54
2022-10-09T21:56:05.623Z,88.14
2022-10-09T21:58:32.534Z,88.41
2022-10-09T22:01:01.284Z,88.38
2022-10-09T22:03:30.487Z,88.47
2022-10-09T22:05:57.056Z,87.84
2022-10-09T22:08:24.100Z,88.04
2022-10-09T22:10:50.550Z,88.76
2022-10-09T22:13:18.350Z,88.74
2022-10-09T22:15:50.163Z,88.76
2022-10-09T22:18:17.755Z,88.87
2022-10-09T22:20:46.727Z,88.16
2022-10-09T22:23:14.084Z,88.67
2022-10-09T22:25:40.499Z,88.72
2022-10-09T22:28:07.510Z,89.21
2022-10-09T22:30:34.495Z,89.13
2022-10-09T22:33:00.964Z,89.05
2022-10-09T22:35:27.620Z,89.08
2022-10-09T22:37:54.077Z,89.41
2022-10-09T22:40:20.603Z,89.25
2022-10-09T22:42:47.248Z,89.53
2022-10-09T22:45:13.868Z,89.60
2022-10-09T22:47:40.301Z,89.46
2022-10-09T22:50:07.093Z,89.85
2022-10-09T22:52:33.464Z,89.67
2022-10-09T22:55:00.539Z,89.78
2022-10-09T22:57:26.930Z,89.37
2022-10-09T22:59:53.303Z,90.17
2022-10-09T23:02:19.714Z,89.72
2022-10-09T23:04:46.083Z,90.02
2022-10-09T23:07:12.511Z,90.11
2022-10-09T23:09:38.887Z,89.67
2022-10-09T23:12:05.378Z,89.85
2022-10-09T23:14:31.865Z,90.10
2022-10-09T23:16:58.238Z,90.27
2022-10-09T23:19:24.606Z,90.55
2022-10-09T23:21:50.974Z,90.68
2022-10-09T23:24:17.875Z,90.58
2022-10-09T23:26:46.092Z,90.63
2022-10-09T23:29:17.908Z,90.31
2022-10-09T23:31:44.470Z,89.94
2022-10-09T23:34:11.503Z,90.78
2022-10-09T23:36:37.957Z,90.49
2022-10-09T23:39:06.055Z,91.20
2022-10-09T23:41:32.844Z,91.53
2022-10-09T23:43:59.400Z,91.22
2022-10-09T23:46:29.515Z,91.25
2022-10-09T23:48:55.928Z,91.28
2022-10-09T23:51:24.095Z,91.18
2022-10-09T23:53:51.288Z,91.71
2022-10-09T23:56:23.843Z,91.78
2022-10-09T23:58:50.864Z,91.58
